createdAt,value
2022-10-23T00:00:10.799Z,939.39
2022-10-23T00:01:11.017Z,939.35
2022-10-23T00:02:11.718Z,939.31
2022-10-23T00:03:11.889Z,939.28
2022-10-23T00:04:12.522Z,939.31
2022-10-23T00:05:12.735Z,939.29
2022-10-23T00:06:13.646Z,939.26
2022-10-23T00:07:13.835Z,939.34
2022-10-23T00:08:14.626Z,939.32
2022-10-23T00:09:15.600Z,939.34
2022-10-23T00:10:15.916Z,939.37
2022-10-23T00:11:16.812Z,939.43
2022-10-23T00:12:17.433Z,939.41
2022-10-23T00:13:17.758Z,939.39
2022-10-23T00:14:18.383Z,939.38
2022-10-23T00:15:19.310Z,939.39
2022-10-23T00:16:20.239Z,939.43
2022-10-23T00:17:20.844Z,939.43
2022-10-23T00:18:21.745Z,939.45
2022-10-23T00:19:21.881Z,939.45
2022-10-23T00:20:22.816Z,939.46
2022-10-23T00:21:23.716Z,939.43
2022-10-23T00:22:24.332Z,939.39
2022-10-23T00:23:24.589Z,939.41
2022-10-23T00:24:25.210Z,939.44
2022-10-23T00:25:26.123Z,939.47
2022-10-23T00:26:26.835Z,939.43
2022-10-23T00:27:27.425Z,939.41
2022-10-23T00:28:28.107Z,939.39
2022-10-23T00:29:28.800Z,939.39
2022-10-23T00:30:29.692Z,939.44
2022-10-23T00:31:30.757Z,939.38
2022-10-23T00:33:31.925Z,939.4
2022-10-23T00:34:32.972Z,939.4
2022-10-23T00:35:33.614Z,939.4
2022-10-23T00:36:33.804Z,939.43
2022-10-23T00:37:34.714Z,939.41
2022-10-23T00:38:35.465Z,939.41
2022-10-23T00:39:36.194Z,939.42
2022-10-23T00:40:36.591Z,939.39
2022-10-23T00:41:37.615Z,939.4
2022-10-23T00:42:38.510Z,939.4
2022-10-23T00:43:39.232Z,939.38
2022-10-23T00:44:40.135Z,939.36
2022-10-23T00:45:41.050Z,939.38
2022-10-23T00:46:41.667Z,939.37
2022-10-23T00:47:42.583Z,939.34
2022-10-23T00:48:42.789Z,939.35
2022-10-23T00:49:43.201Z,939.37
2022-10-23T00:50:43.466Z,939.32
2022-10-23T00:51:43.648Z,939.35
2022-10-23T00:52:44.803Z,939.34
2022-10-23T00:53:46.316Z,939.36
2022-10-23T00:54:45.253Z,939.34
2022-10-23T00:55:45.462Z,939.33
2022-10-23T00:56:45.788Z,939.3
2022-10-23T00:57:45.973Z,939.32
2022-10-23T00:58:46.602Z,939.29
2022-10-23T00:59:47.374Z,939.3
2022-10-23T01:00:48.266Z,939.31
2022-10-23T01:01:48.579Z,939.31
2022-10-23T01:02:49.122Z,939.35
2022-10-23T01:03:50.035Z,939.36
2022-10-23T01:04:50.940Z,939.34
2022-10-23T01:05:51.593Z,939.34
2022-10-23T01:06:51.777Z,939.33
2022-10-23T01:07:52.681Z,939.31
2022-10-23T01:08:52.900Z,939.29
2022-10-23T01:09:53.584Z,939.27
2022-10-23T01:10:53.769Z,939.31
2022-10-23T01:11:54.402Z,939.35
2022-10-23T01:12:54.894Z,939.27
2022-10-23T01:13:55.537Z,939.31
2022-10-23T01:14:56.074Z,939.29
2022-10-23T01:15:56.705Z,939.27
2022-10-23T01:16:57.317Z,939.31
2022-10-23T01:17:57.923Z,939.27
2022-10-23T01:18:58.566Z,939.31
2022-10-23T01:19:58.847Z,939.25
2022-10-23T01:20:59.212Z,939.25
2022-10-23T01:22:00.107Z,939.26
2022-10-23T01:23:00.901Z,939.22
2022-10-23T01:24:01.408Z,939.22
2022-10-23T01:25:02.316Z,939.23
2022-10-23T01:26:02.923Z,939.24
2022-10-23T01:27:03.516Z,939.22
2022-10-23T01:28:03.708Z,939.2
2022-10-23T01:29:03.919Z,939.19
2022-10-23T01:30:04.615Z,939.19
2022-10-23T01:31:05.647Z,939.17
2022-10-23T01:32:06.557Z,939.15
2022-10-23T01:33:07.491Z,939.14
2022-10-23T01:34:07.705Z,939.13
2022-10-23T01:35:07.888Z,939.12
2022-10-23T01:36:08.820Z,939.08
2022-10-23T01:37:09.130Z,939.05
2022-10-23T01:38:10.036Z,939.07
2022-10-23T01:39:10.672Z,938.98
2022-10-23T01:40:11.660Z,939.05
2022-10-23T01:41:12.273Z,939.04
2022-10-23T01:42:12.901Z,939.07
2022-10-23T01:43:13.084Z,939.09
2022-10-23T01:44:13.694Z,939.03
2022-10-23T01:45:14.595Z,938.95
2022-10-23T01:46:15.505Z,938.97
2022-10-23T01:47:16.031Z,938.98
2022-10-23T01:48:16.671Z,938.98
2022-10-23T01:49:16.884Z,938.98
2022-10-23T01:50:17.593Z,938.93
2022-10-23T01:51:17.827Z,938.92
2022-10-23T01:52:18.717Z,938.92
2022-10-23T01:53:19.625Z,938.9
2022-10-23T01:54:20.135Z,938.85
2022-10-23T01:55:20.633Z,938.85
2022-10-23T01:56:21.532Z,938.92
2022-10-23T01:57:22.160Z,938.95
2022-10-23T01:58:22.355Z,938.92
2022-10-23T01:59:22.971Z,938.86
2022-10-23T02:00:23.285Z,938.82
2022-10-23T02:01:23.714Z,938.82
2022-10-23T02:02:24.191Z,938.8
2022-10-23T02:03:24.647Z,938.81
2022-10-23T02:04:24.851Z,938.76
2022-10-23T02:05:25.761Z,938.73
2022-10-23T02:06:26.259Z,938.69
2022-10-23T02:07:26.850Z,938.74
2022-10-23T02:08:27.099Z,938.71
2022-10-23T02:09:28.023Z,938.68
2022-10-23T02:10:29.004Z,938.64
2022-10-23T02:11:29.920Z,938.64
2022-10-23T02:12:30.551Z,938.64
2022-10-23T02:13:30.767Z,938.65
2022-10-23T02:14:30.978Z,938.66
2022-10-23T02:15:31.782Z,938.6
2022-10-23T02:16:31.992Z,938.64
2022-10-23T02:17:32.626Z,938.64
2022-10-23T02:18:33.553Z,938.63
2022-10-23T02:19:34.174Z,938.66
2022-10-23T02:20:35.208Z,938.64
2022-10-23T02:21:35.843Z,938.68
2022-10-23T02:22:36.770Z,938.61
2022-10-23T02:23:37.344Z,938.65
2022-10-23T02:24:37.475Z,938.63
2022-10-23T02:25:38.370Z,938.68
2022-10-23T02:26:39.276Z,938.64
2022-10-23T02:27:40.169Z,938.58
2022-10-23T02:28:40.788Z,938.67
2022-10-23T02:29:41.824Z,938.67
2022-10-23T02:30:42.567Z,938.62
2022-10-23T02:31:43.603Z,938.63
2022-10-23T02:32:44.207Z,938.63
2022-10-23T02:33:44.359Z,938.65
2022-10-23T02:34:44.984Z,938.64
2022-10-23T02:35:45.167Z,938.61
2022-10-23T02:36:45.820Z,938.55
2022-10-23T02:37:46.391Z,938.54
2022-10-23T02:38:47.002Z,938.54
2022-10-23T02:39:47.922Z,938.53
2022-10-23T02:40:48.210Z,938.51
2022-10-23T02:41:48.391Z,938.51
2022-10-23T02:42:49.299Z,938.52
2022-10-23T02:43:49.612Z,938.56
2022-10-23T02:44:50.500Z,938.58
2022-10-23T02:45:50.698Z,938.55
2022-10-23T02:46:51.597Z,938.56
2022-10-23T02:47:52.075Z,938.51
2022-10-23T02:48:52.958Z,938.53
2022-10-23T02:49:53.873Z,938.54
2022-10-23T02:50:54.574Z,938.53
2022-10-23T02:51:55.209Z,938.49
2022-10-23T02:52:55.673Z,938.47
2022-10-23T02:54:57.494Z,938.48
2022-10-23T02:55:57.978Z,938.44
2022-10-23T02:56:58.464Z,938.43
2022-10-23T02:57:59.096Z,938.41
2022-10-23T02:58:59.281Z,938.38
2022-10-23T02:59:59.890Z,938.32
2022-10-23T03:01:00.531Z,938.34
2022-10-23T03:02:01.401Z,938.29
2022-10-23T03:03:02.131Z,938.32
2022-10-23T03:04:03.045Z,938.34
2022-10-23T03:05:03.245Z,938.31
2022-10-23T03:06:04.134Z,938.28
2022-10-23T03:07:04.756Z,938.33
2022-10-23T03:08:05.634Z,938.33
2022-10-23T03:09:06.275Z,938.35
2022-10-23T03:10:06.768Z,938.33
2022-10-23T03:11:07.778Z,938.36
2022-10-23T03:12:08.672Z,938.31
2022-10-23T03:13:08.848Z,938.29
2022-10-23T03:14:09.329Z,938.28
2022-10-23T03:15:10.235Z,938.28
2022-10-23T03:16:11.160Z,938.3
2022-10-23T03:17:12.068Z,938.33
2022-10-23T03:18:12.979Z,938.36
2022-10-23T03:19:13.598Z,938.36
2022-10-23T03:20:13.816Z,938.34
2022-10-23T03:21:14.522Z,938.31
2022-10-23T03:22:15.438Z,938.34
2022-10-23T03:23:15.619Z,938.36
2022-10-23T03:24:16.244Z,938.36
2022-10-23T03:25:16.795Z,938.36
2022-10-23T03:26:17.390Z,938.36
2022-10-23T03:27:18.317Z,938.33
2022-10-23T03:28:18.616Z,938.37
2022-10-23T03:29:18.821Z,938.36
2022-10-23T03:30:19.730Z,938.3
2022-10-23T03:31:19.845Z,938.3
2022-10-23T03:32:20.172Z,938.28
2022-10-23T03:33:20.783Z,938.35
2022-10-23T03:34:21.821Z,938.37
2022-10-23T03:35:22.740Z,938.34
2022-10-23T03:36:23.274Z,938.37
2022-10-23T03:37:23.611Z,938.37
2022-10-23T03:38:23.854Z,938.37
2022-10-23T03:39:24.783Z,938.37
2022-10-23T03:40:25.731Z,938.33
2022-10-23T03:41:26.414Z,938.31
2022-10-23T03:42:27.343Z,938.32
2022-10-23T03:43:27.682Z,938.32
2022-10-23T03:44:27.876Z,938.27
2022-10-23T03:45:28.756Z,938.23
2022-10-23T03:46:28.984Z,938.22
2022-10-23T03:47:29.620Z,938.19
2022-10-23T03:48:30.561Z,938.27
2022-10-23T03:49:31.173Z,938.28
2022-10-23T03:50:32.077Z,938.21
2022-10-23T03:51:32.355Z,938.12
2022-10-23T03:52:32.589Z,938.15
2022-10-23T03:53:33.003Z,938.21
2022-10-23T03:54:33.930Z,938.23
2022-10-23T03:55:34.856Z,938.19
2022-10-23T03:56:35.055Z,938.18
2022-10-23T03:57:36.120Z,938.15
2022-10-23T03:58:37.008Z,938.18
2022-10-23T03:59:37.215Z,938.15
2022-10-23T04:00:38.121Z,938.19
2022-10-23T04:01:38.565Z,938.19
2022-10-23T04:02:39.449Z,938.15
2022-10-23T04:03:40.399Z,938.24
2022-10-23T04:04:40.890Z,938.29
2022-10-23T04:05:41.511Z,938.2
2022-10-23T04:06:42.274Z,938.21
2022-10-23T04:07:42.919Z,938.25
2022-10-23T04:08:43.192Z,938.24
2022-10-23T04:09:43.460Z,938.17
2022-10-23T04:10:44.403Z,938.17
2022-10-23T04:11:44.831Z,938.22
2022-10-23T04:12:45.458Z,938.2
2022-10-23T04:13:45.290Z,938.16
2022-10-23T04:14:45.907Z,938.16
2022-10-23T04:15:46.817Z,938.12
2022-10-23T04:16:47.718Z,938.12
2022-10-23T04:17:48.348Z,938.06
2022-10-23T04:18:48.973Z,938.07
2022-10-23T04:19:49.855Z,938.05
2022-10-23T04:20:50.780Z,938.09
2022-10-23T04:21:51.361Z,938.08
2022-10-23T04:22:51.569Z,938.09
2022-10-23T04:23:52.441Z,938.1
2022-10-23T04:24:53.051Z,938.13
2022-10-23T04:25:53.979Z,938.09
2022-10-23T04:26:54.293Z,938.08
2022-10-23T04:27:55.180Z,938.09
2022-10-23T04:28:55.512Z,938.06
2022-10-23T04:29:56.916Z,938.11
2022-10-23T04:30:56.962Z,938.1
2022-10-23T04:31:57.676Z,938.08
2022-10-23T04:32:58.581Z,938.08
2022-10-23T04:33:58.867Z,938.03
2022-10-23T04:34:59.497Z,938.03
2022-10-23T04:36:00.134Z,938.04
2022-10-23T04:37:01.023Z,938.02
2022-10-23T04:38:01.955Z,937.98
2022-10-23T04:39:02.580Z,938
2022-10-23T04:40:02.767Z,937.98
2022-10-23T04:41:03.283Z,938
2022-10-23T04:42:03.410Z,937.98
2022-10-23T04:43:04.218Z,938.03
2022-10-23T04:44:05.122Z,938.01
2022-10-23T04:45:06.007Z,938.01
2022-10-23T04:46:06.213Z,938.01
2022-10-23T04:47:07.112Z,937.99
2022-10-23T04:48:07.734Z,937.98
2022-10-23T04:49:08.365Z,938
2022-10-23T04:50:08.567Z,938
2022-10-23T04:51:08.874Z,937.96
2022-10-23T04:52:09.153Z,937.98
2022-10-23T04:53:10.066Z,937.92
2022-10-23T04:54:10.259Z,937.88
2022-10-23T04:55:10.588Z,937.87
2022-10-23T04:56:11.100Z,937.87
2022-10-23T04:57:11.710Z,937.86
2022-10-23T04:58:12.330Z,937.82
2022-10-23T04:59:12.639Z,937.81
2022-10-23T05:00:13.570Z,937.86
2022-10-23T05:01:13.984Z,937.83
2022-10-23T05:02:13.950Z,937.86
2022-10-23T05:03:14.561Z,937.85
2022-10-23T05:04:15.468Z,937.85
2022-10-23T05:05:16.375Z,937.84
2022-10-23T05:06:16.599Z,937.86
2022-10-23T05:07:16.835Z,937.85
2022-10-23T05:08:18.102Z,937.85
2022-10-23T05:09:17.562Z,937.84
2022-10-23T05:10:18.519Z,937.86
2022-10-23T05:11:18.747Z,937.84
2022-10-23T05:12:19.751Z,937.84
2022-10-23T05:13:19.989Z,937.87
2022-10-23T05:14:21.935Z,937.81
2022-10-23T05:15:20.852Z,937.78
2022-10-23T05:16:21.595Z,937.79
2022-10-23T05:17:22.509Z,937.8
2022-10-23T05:18:22.900Z,937.82
2022-10-23T05:19:24.248Z,937.83
2022-10-23T05:20:24.472Z,937.84
2022-10-23T05:21:25.128Z,937.82
2022-10-23T05:22:26.125Z,937.84
2022-10-23T05:23:26.631Z,937.88
2022-10-23T05:24:27.251Z,937.86
2022-10-23T05:25:27.617Z,937.88
2022-10-23T05:26:27.850Z,937.85
2022-10-23T05:27:28.033Z,937.8
2022-10-23T05:28:29.066Z,937.83
2022-10-23T05:29:29.993Z,937.85
2022-10-23T05:30:30.583Z,937.79
2022-10-23T05:31:31.489Z,937.78
2022-10-23T05:32:31.784Z,937.74
2022-10-23T05:33:32.199Z,937.71
2022-10-23T05:34:32.973Z,937.69
2022-10-23T05:35:33.159Z,937.65
2022-10-23T05:36:33.362Z,937.7
2022-10-23T05:37:33.975Z,937.67
2022-10-23T05:38:34.187Z,937.71
2022-10-23T05:39:34.398Z,937.72
2022-10-23T05:40:34.780Z,937.74
2022-10-23T05:41:35.534Z,937.71
2022-10-23T05:42:38.224Z,937.69
2022-10-23T05:43:36.718Z,937.7
2022-10-23T05:44:37.333Z,937.73
2022-10-23T05:45:38.241Z,937.73
2022-10-23T05:46:39.152Z,937.7
2022-10-23T05:47:39.657Z,937.68
2022-10-23T05:48:39.956Z,937.7
2022-10-23T05:49:40.695Z,937.7
2022-10-23T05:50:41.606Z,937.73
2022-10-23T05:51:42.261Z,937.71
2022-10-23T05:52:42.737Z,937.69
2022-10-23T05:53:43.259Z,937.71
2022-10-23T05:54:43.738Z,937.69
2022-10-23T05:55:44.375Z,937.74
2022-10-23T05:56:44.578Z,937.7
2022-10-23T05:57:45.129Z,937.72
2022-10-23T05:58:45.270Z,937.68
2022-10-23T05:59:45.894Z,937.66
2022-10-23T06:00:46.500Z,937.65
2022-10-23T06:01:47.186Z,937.68
2022-10-23T06:02:47.820Z,937.72
2022-10-23T06:03:48.734Z,937.71
2022-10-23T06:04:49.647Z,937.74
2022-10-23T06:05:49.858Z,937.78
2022-10-23T06:06:50.112Z,937.74
2022-10-23T06:07:50.325Z,937.75
2022-10-23T06:08:51.261Z,937.73
2022-10-23T06:09:51.455Z,937.76
2022-10-23T06:10:51.645Z,937.76
2022-10-23T06:11:51.883Z,937.78
2022-10-23T06:12:52.589Z,937.7
2022-10-23T06:13:53.542Z,937.72
2022-10-23T06:14:53.747Z,937.74
2022-10-23T06:15:54.729Z,937.79
2022-10-23T06:16:54.872Z,937.78
2022-10-23T06:17:55.218Z,937.79
2022-10-23T06:18:56.129Z,937.82
2022-10-23T06:19:56.338Z,937.81
2022-10-23T06:20:56.984Z,937.84
2022-10-23T06:21:57.632Z,937.77
2022-10-23T06:22:58.635Z,937.84
2022-10-23T06:23:58.982Z,937.81
2022-10-23T06:24:59.158Z,937.79
2022-10-23T06:26:00.083Z,937.79
2022-10-23T06:27:00.304Z,937.82
2022-10-23T06:28:01.199Z,937.8
2022-10-23T06:29:01.680Z,937.81
2022-10-23T06:30:02.162Z,937.89
2022-10-23T06:31:02.368Z,937.86
2022-10-23T06:32:03.014Z,937.92
2022-10-23T06:33:04.658Z,937.9
2022-10-23T06:34:04.467Z,937.89
2022-10-23T06:35:04.955Z,937.89
2022-10-23T06:36:05.592Z,937.91
2022-10-23T06:37:06.420Z,937.9
2022-10-23T06:38:07.035Z,937.91
2022-10-23T06:39:07.682Z,937.89
2022-10-23T06:40:08.795Z,937.92
2022-10-23T06:41:08.843Z,937.86
2022-10-23T06:42:09.060Z,937.85
2022-10-23T06:43:10.055Z,937.9
2022-10-23T06:44:10.786Z,937.93
2022-10-23T06:45:11.396Z,937.95
2022-10-23T06:46:12.313Z,937.91
2022-10-23T06:47:12.709Z,937.92
2022-10-23T06:48:12.968Z,937.93
2022-10-23T06:49:13.585Z,937.93
2022-10-23T06:50:15.340Z,937.96
2022-10-23T06:51:15.180Z,937.96
2022-10-23T06:52:34.865Z,938
2022-10-23T06:53:29.697Z,938.01
2022-10-23T06:54:30.633Z,938.03
2022-10-23T06:55:31.620Z,937.97
2022-10-23T06:56:32.272Z,938.04
2022-10-23T06:57:33.208Z,938.02
2022-10-23T06:58:33.786Z,938.01
2022-10-23T06:59:34.705Z,937.99
2022-10-23T07:00:35.317Z,937.94
2022-10-23T07:01:35.724Z,937.92
2022-10-23T07:02:36.143Z,937.95
2022-10-23T07:03:36.319Z,937.99
2022-10-23T07:04:36.660Z,937.99
2022-10-23T07:05:37.575Z,938
2022-10-23T07:06:38.477Z,937.96
2022-10-23T07:07:38.703Z,938.05
2022-10-23T07:08:38.921Z,937.98
2022-10-23T07:09:39.844Z,938.02
2022-10-23T07:10:40.026Z,937.96
2022-10-23T07:11:40.513Z,937.89
2022-10-23T07:12:41.216Z,937.94
2022-10-23T07:13:41.177Z,937.91
2022-10-23T07:14:42.094Z,937.93
2022-10-23T07:15:43.011Z,937.9
2022-10-23T07:16:43.920Z,937.92
2022-10-23T07:17:44.554Z,937.94
2022-10-23T07:18:45.460Z,937.92
2022-10-23T07:19:46.370Z,937.85
2022-10-23T07:20:47.293Z,937.82
2022-10-23T07:21:47.490Z,937.81
2022-10-23T07:22:47.990Z,937.83
2022-10-23T07:23:48.709Z,937.84
2022-10-23T07:24:49.652Z,937.85
2022-10-23T07:25:50.576Z,937.84
2022-10-23T07:27:51.011Z,937.83
2022-10-23T07:28:51.633Z,937.83
2022-10-23T07:29:51.837Z,937.85
2022-10-23T07:30:52.883Z,937.83
2022-10-23T07:31:53.797Z,937.87
2022-10-23T07:32:54.710Z,937.84
2022-10-23T07:33:55.008Z,937.85
2022-10-23T07:34:55.911Z,937.82
2022-10-23T07:35:56.846Z,937.87
2022-10-23T07:36:57.766Z,937.84
2022-10-23T07:37:57.994Z,937.82
2022-10-23T07:38:58.893Z,937.89
2022-10-23T07:39:59.111Z,937.91
2022-10-23T07:40:59.394Z,937.92
2022-10-23T07:41:59.483Z,937.97
2022-10-23T07:43:00.089Z,937.92
2022-10-23T07:44:00.513Z,938
2022-10-23T07:45:00.724Z,937.99
2022-10-23T07:46:01.634Z,938.01
2022-10-23T07:47:02.133Z,937.99
2022-10-23T07:48:03.053Z,937.99
2022-10-23T07:49:03.261Z,938.02
2022-10-23T07:50:04.177Z,938.04
2022-10-23T07:51:05.072Z,938
2022-10-23T07:52:06.137Z,938
2022-10-23T07:53:06.361Z,938.01
2022-10-23T07:54:07.359Z,937.98
2022-10-23T07:55:08.014Z,938.05
2022-10-23T07:56:08.212Z,938.02
2022-10-23T07:57:09.156Z,938.02
2022-10-23T07:58:09.670Z,938.07
2022-10-23T07:59:10.282Z,938.04
2022-10-23T08:00:10.985Z,938.02
2022-10-23T08:01:11.233Z,938.09
2022-10-23T08:02:12.228Z,938.04
2022-10-23T08:03:12.739Z,938.08
2022-10-23T08:04:13.759Z,938.08
2022-10-23T08:05:14.102Z,938.07
2022-10-23T08:06:14.315Z,938.09
2022-10-23T08:07:14.957Z,938.14
2022-10-23T08:08:15.907Z,938.08
2022-10-23T08:09:16.920Z,938.07
2022-10-23T08:10:17.862Z,938.15
2022-10-23T08:11:18.164Z,938.15
2022-10-23T08:12:18.386Z,938.13
2022-10-23T08:13:18.602Z,938.11
2022-10-23T08:14:19.522Z,938.13
2022-10-23T08:15:20.445Z,938.09
2022-10-23T08:16:21.065Z,938.13
2022-10-23T08:17:23.088Z,938.1
2022-10-23T08:18:22.011Z,938.11
2022-10-23T08:19:22.235Z,938.1
2022-10-23T08:20:23.218Z,938.09
2022-10-23T08:21:23.554Z,938.13
2022-10-23T08:22:23.771Z,938.08
2022-10-23T08:23:23.980Z,938.06
2022-10-23T08:24:24.296Z,938.08
2022-10-23T08:25:26.035Z,938.04
2022-10-23T08:26:25.981Z,938.09
2022-10-23T08:27:26.194Z,938.08
2022-10-23T08:28:26.995Z,937.99
2022-10-23T08:29:27.492Z,938.02
2022-10-23T08:30:28.412Z,937.98
2022-10-23T08:31:28.750Z,937.99
2022-10-23T08:32:28.944Z,937.96
2022-10-23T08:33:29.154Z,937.9
2022-10-23T08:34:30.003Z,937.86
2022-10-23T08:35:30.624Z,937.9
2022-10-23T08:36:30.918Z,937.91
2022-10-23T08:37:31.417Z,937.92
2022-10-23T08:38:32.503Z,937.92
2022-10-23T08:39:32.849Z,937.85
2022-10-23T08:40:33.020Z,937.82
2022-10-23T08:41:33.300Z,937.84
2022-10-23T08:42:34.215Z,937.87
2022-10-23T08:43:34.520Z,937.83
2022-10-23T08:44:35.547Z,937.85
2022-10-23T08:45:36.464Z,937.8
2022-10-23T08:46:37.090Z,937.82
2022-10-23T08:47:37.573Z,937.75
2022-10-23T08:48:38.199Z,937.76
2022-10-23T08:49:38.693Z,937.77
2022-10-23T08:50:39.587Z,937.74
2022-10-23T08:51:39.787Z,937.75
2022-10-23T08:52:40.640Z,937.76
2022-10-23T08:53:40.857Z,937.77
2022-10-23T08:54:41.279Z,937.79
2022-10-23T08:55:41.519Z,937.77
2022-10-23T08:56:41.728Z,937.79
2022-10-23T08:57:43.480Z,937.84
2022-10-23T08:58:42.816Z,937.8
2022-10-23T08:59:43.209Z,937.86
2022-10-23T09:00:43.936Z,937.77
2022-10-23T09:01:44.332Z,937.77
2022-10-23T09:02:45.301Z,937.8
2022-10-23T09:03:45.955Z,937.78
2022-10-23T09:04:46.691Z,937.78
2022-10-23T09:05:46.883Z,937.86
2022-10-23T09:06:47.077Z,938.01
2022-10-23T09:07:47.841Z,937.85
2022-10-23T09:08:48.345Z,937.85
2022-10-23T09:09:48.846Z,937.88
2022-10-23T09:10:51.349Z,937.87
2022-10-23T09:11:50.580Z,937.9
2022-10-23T09:12:51.498Z,937.92
2022-10-23T09:13:52.228Z,937.86
2022-10-23T09:14:52.645Z,937.9
2022-10-23T09:15:53.266Z,937.85
2022-10-23T09:16:53.467Z,937.9
2022-10-23T09:17:53.852Z,937.84
2022-10-23T09:18:54.050Z,937.87
2022-10-23T09:19:54.465Z,937.8
2022-10-23T09:20:54.682Z,937.78
2022-10-23T09:21:55.308Z,937.78
2022-10-23T09:22:55.502Z,937.78
2022-10-23T09:23:56.433Z,937.76
2022-10-23T09:24:57.060Z,937.75
2022-10-23T09:25:57.711Z,937.72
2022-10-23T09:26:58.678Z,937.73
2022-10-23T09:28:00.092Z,937.7
2022-10-23T09:28:59.863Z,937.78
2022-10-23T09:30:00.809Z,937.73
2022-10-23T09:31:01.008Z,937.69
2022-10-23T09:32:01.496Z,937.69
2022-10-23T09:33:02.417Z,937.63
2022-10-23T09:34:03.377Z,937.62
2022-10-23T09:35:04.341Z,937.58
2022-10-23T09:36:04.827Z,937.57
2022-10-23T09:37:05.451Z,937.6
2022-10-23T09:38:06.080Z,937.56
2022-10-23T09:39:06.987Z,937.56
2022-10-23T09:40:07.932Z,937.51
2022-10-23T09:41:08.972Z,937.48
2022-10-23T09:42:09.272Z,937.52
2022-10-23T09:43:10.210Z,937.5
2022-10-23T09:44:10.447Z,937.42
2022-10-23T09:45:11.490Z,937.47
2022-10-23T09:46:12.405Z,937.43
2022-10-23T09:47:13.473Z,937.44
2022-10-23T09:48:14.412Z,937.35
2022-10-23T09:49:14.631Z,937.4
2022-10-23T09:50:15.531Z,937.47
2022-10-23T09:51:16.454Z,937.45
2022-10-23T09:52:17.080Z,937.46
2022-10-23T09:53:17.573Z,937.47
2022-10-23T09:54:18.488Z,937.5
2022-10-23T09:55:19.537Z,937.55
2022-10-23T09:56:23.598Z,937.5
2022-10-23T09:57:20.823Z,937.62
2022-10-23T09:58:21.791Z,937.49
2022-10-23T09:59:22.321Z,937.56
2022-10-23T10:00:22.944Z,937.54
2022-10-23T10:01:23.787Z,937.55
2022-10-23T10:02:24.320Z,937.56
2022-10-23T10:03:25.242Z,937.57
2022-10-23T10:04:25.451Z,937.62
2022-10-23T10:05:25.743Z,937.65
2022-10-23T10:06:26.473Z,937.61
2022-10-23T10:07:26.712Z,937.64
2022-10-23T10:08:27.585Z,937.63
2022-10-23T10:09:28.527Z,937.64
2022-10-23T10:10:29.459Z,937.67
2022-10-23T10:11:29.689Z,937.57
2022-10-23T10:12:30.610Z,937.58
2022-10-23T10:13:30.838Z,937.63
2022-10-23T10:14:31.064Z,937.57
2022-10-23T10:15:32.076Z,937.53
2022-10-23T10:16:32.754Z,937.54
2022-10-23T10:17:33.427Z,937.58
2022-10-23T10:18:34.120Z,937.48
2022-10-23T10:19:34.470Z,937.48
2022-10-23T10:20:35.408Z,937.47
2022-10-23T10:21:35.619Z,937.42
2022-10-23T10:22:36.240Z,937.44
2022-10-23T10:23:36.398Z,937.41
2022-10-23T10:24:36.910Z,937.42
2022-10-23T10:25:37.370Z,937.4
2022-10-23T10:26:38.313Z,937.33
2022-10-23T10:27:38.800Z,937.35
2022-10-23T10:28:39.311Z,937.3
2022-10-23T10:29:39.548Z,937.28
2022-10-23T10:30:40.204Z,937.27
2022-10-23T10:31:40.423Z,937.22
2022-10-23T10:32:40.760Z,937.28
2022-10-23T10:33:41.792Z,937.24
2022-10-23T10:34:42.012Z,937.25
2022-10-23T10:35:42.728Z,937.23
2022-10-23T10:36:42.924Z,937.25
2022-10-23T10:37:44.801Z,937.2
2022-10-23T10:38:44.241Z,937.19
2022-10-23T10:39:45.183Z,937.12
2022-10-23T10:40:46.102Z,937.16
2022-10-23T10:41:46.335Z,937.16
2022-10-23T10:42:46.629Z,937.14
2022-10-23T10:43:46.941Z,937.07
2022-10-23T10:44:47.464Z,937.12
2022-10-23T10:45:48.504Z,937.1
2022-10-23T10:46:48.683Z,937.04
2022-10-23T10:47:49.607Z,937.07
2022-10-23T10:48:49.807Z,937.14
2022-10-23T10:49:50.720Z,937.13
2022-10-23T10:50:51.650Z,937.09
2022-10-23T10:51:52.273Z,937.11
2022-10-23T10:52:52.968Z,937.12
2022-10-23T10:53:52.897Z,937.04
2022-10-23T10:54:53.541Z,937.02
2022-10-23T10:55:54.532Z,937.04
2022-10-23T10:56:55.090Z,937.05
2022-10-23T10:57:57.951Z,937.05
2022-10-23T10:58:56.198Z,937.02
2022-10-23T10:59:56.450Z,937
2022-10-23T11:00:57.229Z,937.02
2022-10-23T11:01:57.365Z,937
2022-10-23T11:02:57.597Z,936.98
2022-10-23T11:03:58.095Z,937.01
2022-10-23T11:04:59.017Z,936.96
2022-10-23T11:07:00.096Z,936.94
2022-10-23T11:08:01.016Z,936.91
2022-10-23T11:09:19.182Z,936.98
2022-10-23T11:10:01.700Z,936.9
2022-10-23T11:11:02.050Z,936.91
2022-10-23T11:12:02.700Z,936.89
2022-10-23T11:13:03.236Z,936.89
2022-10-23T11:14:03.848Z,936.89
2022-10-23T11:15:04.584Z,936.89
2022-10-23T11:16:05.007Z,936.87
2022-10-23T11:17:06.052Z,936.85
2022-10-23T11:18:06.674Z,936.8
2022-10-23T11:19:09.889Z,936.81
2022-10-23T11:20:08.263Z,936.83
2022-10-23T11:21:08.522Z,936.83
2022-10-23T11:22:08.733Z,936.81
2022-10-23T11:23:09.641Z,936.8
2022-10-23T11:25:10.473Z,936.75
2022-10-23T11:26:10.787Z,936.76
2022-10-23T11:27:11.447Z,936.74
2022-10-23T11:28:12.353Z,936.68
2022-10-23T11:29:13.280Z,936.65
2022-10-23T11:30:14.264Z,936.69
2022-10-23T11:31:15.190Z,936.62
2022-10-23T11:32:16.117Z,936.72
2022-10-23T11:33:16.965Z,936.7
2022-10-23T11:34:17.165Z,936.72
2022-10-23T11:35:18.069Z,936.69
2022-10-23T11:36:18.775Z,936.69
2022-10-23T11:37:19.422Z,936.63
2022-10-23T11:38:20.066Z,936.6
2022-10-23T11:39:20.964Z,936.58
2022-10-23T11:40:21.588Z,936.63
2022-10-23T11:41:23.878Z,936.54
2022-10-23T11:42:23.570Z,936.63
2022-10-23T11:43:24.343Z,936.59
2022-10-23T11:44:24.544Z,936.59
2022-10-23T11:45:24.770Z,936.51
2022-10-23T11:46:25.779Z,936.48
2022-10-23T11:47:26.279Z,936.51
2022-10-23T11:48:26.506Z,936.53
2022-10-23T11:49:26.724Z,936.52
2022-10-23T11:50:27.353Z,936.49
2022-10-23T11:51:27.561Z,936.56
2022-10-23T11:52:28.299Z,936.49
2022-10-23T11:53:29.238Z,936.54
2022-10-23T11:54:29.563Z,936.52
2022-10-23T11:55:29.718Z,936.52
2022-10-23T11:56:30.039Z,936.53
2022-10-23T11:58:31.829Z,936.53
2022-10-23T11:59:32.132Z,936.52
2022-10-23T12:00:32.678Z,936.42
2022-10-23T12:01:32.996Z,936.42
2022-10-23T12:02:33.760Z,936.51
2022-10-23T12:03:34.263Z,936.51
2022-10-23T12:04:34.467Z,936.54
2022-10-23T12:05:35.389Z,936.55
2022-10-23T12:06:36.496Z,936.57
2022-10-23T12:07:37.403Z,936.45
2022-10-23T12:08:38.511Z,936.43
2022-10-23T12:09:39.135Z,936.41
2022-10-23T12:10:39.354Z,936.38
2022-10-23T12:11:40.290Z,936.36
2022-10-23T12:12:41.262Z,936.36
2022-10-23T12:13:41.552Z,936.31
2022-10-23T12:14:41.754Z,936.25
2022-10-23T12:15:42.299Z,936.29
2022-10-23T12:16:42.758Z,936.33
2022-10-23T12:17:43.252Z,936.25
2022-10-23T12:18:43.281Z,936.2
2022-10-23T12:19:44.205Z,936.23
2022-10-23T12:20:44.408Z,936.29
2022-10-23T12:21:44.621Z,936.25
2022-10-23T12:22:44.826Z,936.2
2022-10-23T12:23:47.242Z,936.24
2022-10-23T12:24:45.503Z,936.28
2022-10-23T12:25:46.501Z,936.23
2022-10-23T12:26:46.792Z,936.22
2022-10-23T12:27:47.142Z,936.21
2022-10-23T12:28:47.623Z,936.24
2022-10-23T12:29:47.843Z,936.24
2022-10-23T12:30:48.835Z,936.24
2022-10-23T12:31:49.456Z,936.2
2022-10-23T12:32:50.114Z,936.22
2022-10-23T12:33:50.761Z,936.2
2022-10-23T12:34:50.980Z,936.2
2022-10-23T12:35:51.184Z,936.2
2022-10-23T12:36:52.158Z,936.16
2022-10-23T12:37:52.480Z,936.1
2022-10-23T12:38:53.125Z,936.15
2022-10-23T12:39:53.486Z,936.18
2022-10-23T12:40:53.810Z,936.15
2022-10-23T12:41:54.443Z,936.19
2022-10-23T12:42:54.687Z,936.19
2022-10-23T12:43:55.715Z,936.15
2022-10-23T12:44:56.048Z,936.12